Time;durP1;ratioP1;P1;durP2;ratioP2;P2;SDS_P1;SDS_P2;PMS_P1;PMS_P2;Temp;Humidity;BMP_temperature;BMP_pressure;BME280_temperature;BME280_humidity;BME280_pressure;Samples;Min_cycle;Max_cycle;Signal;HPM_P1;HPM_P2
2023/12/01 00:01:22;;;;;;;;;;;;;;;19.05;62.80;100316.09;7384925;19;1499;-44
2023/12/01 00:03:51;;;;;;;;;;;;;;;19.11;62.80;100329.91;7384867;19;1457;-43
2023/12/01 00:06:21;;;;;;;;;;;;;;;19.13;62.84;100344.00;7382070;19;1849;-44
2023/12/01 00:08:50;;;;;;;;;;;;;;;19.07;62.87;100342.75;7382644;19;1513;-44
2023/12/01 00:11:19;;;;;;;;;;;;;;;19.05;62.70;100342.03;7344977;19;14383;-43
2023/12/01 00:13:47;;;;;;;;;;;;;;;19.12;62.14;100353.00;7385822;19;1454;-43
2023/12/01 00:16:15;;;;;;;;;;;;;;;19.11;62.55;100367.41;7389192;19;1548;-44
2023/12/01 00:18:43;;;;;;;;;;;;;;;19.02;62.90;100363.75;7388139;19;1498;-43
2023/12/01 00:21:12;;;;;;;;;;;;;;;19.04;62.67;100373.38;7390119;19;1315;-43
2023/12/01 00:23:43;;;;;;;;;;;;;;;18.99;62.63;100356.88;7388656;19;1778;-43
2023/12/01 00:26:11;;;;;;;;;;;;;;;19.01;62.20;100359.41;7388705;19;1838;-43
2023/12/01 00:28:40;;;;;;;;;;;;;;;18.99;62.54;100359.53;7395223;19;1463;-43
2023/12/01 00:31:08;;;;;;;;;;;;;;;18.98;62.45;100365.03;7395202;19;1496;-43
2023/12/01 00:33:36;;;;;;;;;;;;;;;18.99;62.32;100364.91;7396601;19;1945;-43
2023/12/01 00:36:05;;;;;;;;;;;;;;;18.98;62.28;100360.56;7395333;19;1759;-43
2023/12/01 00:38:34;;;;;;;;;;;;;;;19.00;62.13;100361.25;7395611;19;1548;-43
2023/12/01 00:41:05;;;;;;;;;;;;;;;18.99;62.16;100359.53;7396692;19;1482;-44
2023/12/01 00:43:34;;;;;;;;;;;;;;;18.97;62.26;100353.47;7396366;19;1552;-43
2023/12/01 00:46:02;;;;;;;;;;;;;;;18.94;62.21;100348.44;7395221;19;1849;-43
2023/12/01 00:48:30;;;;;;;;;;;;;;;18.96;61.84;100370.56;7395239;19;1573;-43
2023/12/01 00:50:59;;;;;;;;;;;;;;;18.94;61.88;100367.19;7395754;19;1458;-43
2023/12/01 00:53:27;;;;;;;;;;;;;;;18.95;62.04;100352.78;7394998;19;1415;-43
2023/12/01 00:55:56;;;;;;;;;;;;;;;18.92;61.83;100350.41;7395446;19;1634;-43
2023/12/01 00:58:27;;;;;;;;;;;;;;;18.96;61.76;100370.56;7394553;19;1399;-43
2023/12/01 01:00:55;;;;;;;;;;;;;;;18.93;61.55;100381.56;7394740;19;1467;-43
2023/12/01 01:03:23;;;;;;;;;;;;;;;18.91;61.74;100372.00;7395785;19;2077;-43
2023/12/01 01:05:52;;;;;;;;;;;;;;;18.92;61.58;100363.81;7396273;19;1450;-43
2023/12/01 01:08:20;;;;;;;;;;;;;;;18.88;61.55;100357.06;7395312;19;1798;-43
2023/12/01 01:10:48;;;;;;;;;;;;;;;18.95;61.47;100354.63;7394812;19;1909;-44
2023/12/01 01:13:17;;;;;;;;;;;;;;;18.90;61.52;100365.78;7395103;19;1846;-43
2023/12/01 01:15:48;;;;;;;;;;;;;;;18.90;61.36;100355.06;7394822;19;1530;-43
2023/12/01 01:18:16;;;;;;;;;;;;;;;18.89;61.57;100366.75;7394856;19;1391;-43
2023/12/01 01:20:45;;;;;;;;;;;;;;;18.91;61.37;100356.75;7394776;19;1589;-43
2023/12/01 01:23:13;;;;;;;;;;;;;;;18.88;61.29;100351.69;7393749;19;1457;-43
2023/12/01 01:25:41;;;;;;;;;;;;;;;18.90;61.31;100360.44;7394110;19;1490;-43
2023/12/01 01:28:10;;;;;;;;;;;;;;;18.88;61.30;100351.69;7391803;19;1845;-43
2023/12/01 01:30:39;;;;;;;;;;;;;;;18.86;61.43;100357.19;7393714;19;1517;-43
2023/12/01 01:33:10;;;;;;;;;;;;;;;18.84;61.23;100344.91;7394923;19;1538;-43
2023/12/01 01:35:38;;;;;;;;;;;;;;;18.88;61.11;100344.50;7394193;19;1557;-43
2023/12/01 01:38:07;;;;;;;;;;;;;;;18.85;61.11;100349.28;7392482;19;1450;-43
2023/12/01 01:40:35;;;;;;;;;;;;;;;18.83;61.04;100340.56;7394969;19;1402;-43
2023/12/01 01:43:03;;;;;;;;;;;;;;;18.83;61.14;100329.84;7394573;19;1371;-43
2023/12/01 01:45:32;;;;;;;;;;;;;;;18.82;61.03;100307.56;7394209;19;1846;-43
2023/12/01 01:48:00;;;;;;;;;;;;;;;18.84;61.00;100336.88;7391115;19;1842;-42
2023/12/01 01:50:31;;;;;;;;;;;;;;;18.84;60.80;100328.84;7395052;19;1486;-43
2023/12/01 01:53:02;;;;;;;;;;;;;;;18.86;61.06;100316.13;7395946;19;1068;-43
2023/12/01 01:55:31;;;;;;;;;;;;;;;18.85;60.75;100306.44;7396534;19;1804;-43
2023/12/01 01:58:00;;;;;;;;;;;;;;;18.82;60.67;100298.66;7394684;19;1846;-42
2023/12/01 02:00:28;;;;;;;;;;;;;;;18.83;60.87;100319.13;7389876;19;3364;-43
2023/12/01 02:02:57;;;;;;;;;;;;;;;18.79;60.91;100288.22;7391401;19;1423;-43
2023/12/01 02:05:25;;;;;;;;;;;;;;;18.81;60.81;100310.38;7392989;19;1518;-43
2023/12/01 02:07:56;;;;;;;;;;;;;;;18.82;60.63;100317.41;7391283;19;1857;-43
2023/12/01 02:10:24;;;;;;;;;;;;;;;18.78;60.54;100330.25;7390756;19;1462;-43
2023/12/01 02:12:53;;;;;;;;;;;;;;;18.78;60.59;100310.63;7392311;19;1576;-43
2023/12/01 02:15:21;;;;;;;;;;;;;;;18.79;60.26;100315.88;7392166;19;1628;-43
2023/12/01 02:17:49;;;;;;;;;;;;;;;18.78;60.61;100321.34;7391915;19;1513;-43
2023/12/01 02:20:18;;;;;;;;;;;;;;;18.76;60.53;100310.81;7392418;19;1564;-43
2023/12/01 02:22:49;;;;;;;;;;;;;;;18.78;59.98;100313.31;7389871;19;1405;-43
2023/12/01 02:25:17;;;;;;;;;;;;;;;18.84;60.09;100323.47;7392218;19;1916;-42
2023/12/01 02:27:46;;;;;;;;;;;;;;;18.82;60.16;100333.50;7390181;19;1853;-43
2023/12/01 02:30:14;;;;;;;;;;;;;;;18.76;60.29;100309.94;7390778;19;1557;-43
2023/12/01 02:32:43;;;;;;;;;;;;;;;18.78;60.19;100316.00;7391853;19;1449;-43
2023/12/01 02:35:12;;;;;;;;;;;;;;;19.22;59.62;100298.41;7392122;19;1685;-42
2023/12/01 02:37:40;;;;;;;;;;;;;;;20.02;58.12;100306.66;7394315;19;1481;-43
2023/12/01 02:40:15;;;;;;;;;;;;;;;20.86;56.12;100293.72;7390680;19;1859;-41
2023/12/01 02:42:47;;;;;;;;;;;;;;;21.04;55.78;100286.44;7391642;19;1419;-42
2023/12/01 02:45:15;;;;;;;;;;;;;;;20.73;56.53;100306.75;7392193;19;1642;-42
2023/12/01 02:47:45;;;;;;;;;;;;;;;20.67;56.74;100292.09;7390421;19;1852;-43
2023/12/01 02:50:13;;;;;;;;;;;;;;;20.82;56.38;100287.00;7389285;19;1697;-42
2023/12/01 02:52:42;;;;;;;;;;;;;;;20.86;56.43;100301.78;7391396;19;1508;-42
2023/12/01 02:55:13;;;;;;;;;;;;;;;20.97;55.93;100304.22;7389354;19;1427;-42
2023/12/01 02:57:42;;;;;;;;;;;;;;;21.13;55.79;100286.47;7390833;19;1438;-42
2023/12/01 03:00:14;;;;;;;;;;;;;;;21.26;55.61;100292.25;7390566;19;1587;-43
2023/12/01 03:02:43;;;;;;;;;;;;;;;21.44;54.83;100286.78;7391452;19;1796;-42
2023/12/01 03:05:12;;;;;;;;;;;;;;;21.41;55.00;100279.88;7389921;19;1574;-42
2023/12/01 03:07:40;;;;;;;;;;;;;;;21.51;54.62;100268.16;7389966;19;1845;-42
2023/12/01 03:10:10;;;;;;;;;;;;;;;21.56;54.45;100276.56;7389992;19;1533;-42
2023/12/01 03:12:41;;;;;;;;;;;;;;;21.58;54.57;100269.19;7390382;19;1398;-42
2023/12/01 03:15:11;;;;;;;;;;;;;;;21.56;54.49;100276.56;7390146;19;1590;-42
2023/12/01 03:17:39;;;;;;;;;;;;;;;21.47;54.61;100280.25;7389773;19;1406;-42
2023/12/01 03:20:10;;;;;;;;;;;;;;;21.27;55.22;100277.81;7390041;19;1429;-42
2023/12/01 03:22:39;;;;;;;;;;;;;;;21.24;55.51;100273.56;7390144;19;1529;-42
2023/12/01 03:25:09;;;;;;;;;;;;;;;21.23;55.66;100276.44;7387784;19;2460;-42
2023/12/01 03:27:44;;;;;;;;;;;;;;;21.27;55.35;100272.44;7388630;19;1878;-42
2023/12/01 03:30:13;;;;;;;;;;;;;;;21.26;55.46;100281.47;7387921;19;1963;-42
2023/12/01 03:32:44;;;;;;;;;;;;;;;21.32;55.23;100267.38;7388909;19;1529;-42
2023/12/01 03:35:12;;;;;;;;;;;;;;;21.39;55.27;100273.81;7390797;19;1390;-40
2023/12/01 03:37:40;;;;;;;;;;;;;;;21.29;55.14;100248.91;7390815;19;1369;-40
2023/12/01 03:40:12;;;;;;;;;;;;;;;21.36;54.95;100258.00;7389539;19;1536;-39
2023/12/01 03:42:43;;;;;;;;;;;;;;;21.35;55.20;100275.16;7390357;19;1427;-39
2023/12/01 03:45:13;;;;;;;;;;;;;;;21.42;54.76;100253.81;7389576;19;1435;-39
2023/12/01 03:47:42;;;;;;;;;;;;;;;21.41;54.83;100258.34;7388440;19;1856;-40
2023/12/01 03:50:12;;;;;;;;;;;;;;;21.38;54.83;100258.66;7389463;19;1493;-40
2023/12/01 03:52:41;;;;;;;;;;;;;;;21.45;54.81;100275.03;7389568;19;1438;-39
2023/12/01 03:55:10;;;;;;;;;;;;;;;21.43;54.58;100253.69;7389308;19;1548;-39
2023/12/01 03:57:38;;;;;;;;;;;;;;;21.44;54.89;100262.59;7387519;19;1475;-39
2023/12/01 04:00:13;;;;;;;;;;;;;;;21.26;54.61;100258.13;7388934;19;1514;-39
2023/12/01 04:02:42;;;;;;;;;;;;;;;20.68;56.05;100274.16;7388617;19;1541;-39
2023/12/01 04:05:16;;;;;;;;;;;;;;;20.08;58.40;100277.53;7389530;19;1365;-39
2023/12/01 04:07:45;;;;;;;;;;;;;;;19.65;60.38;100275.41;7390562;19;1855;-39
2023/12/01 04:10:13;;;;;;;;;;;;;;;19.87;59.48;100267.94;7371830;19;1905;-38
2023/12/01 04:12:44;;;;;;;;;;;;;;;20.01;59.46;100269.25;7363852;19;12819;-42
2023/12/01 04:15:15;;;;;;;;;;;;;;;20.11;58.93;100264.63;7380317;19;1587;-38
2023/12/01 04:17:45;;;;;;;;;;;;;;;19.77;60.09;100268.00;7387900;19;1445;-41
2023/12/01 04:20:20;;;;;;;;;;;;;;;19.55;60.54;100273.78;7386507;19;1454;-41
2023/12/01 04:22:50;;;;;;;;;;;;;;;19.35;60.80;100295.34;7386832;19;1497;-42
2023/12/01 04:25:19;;;;;;;;;;;;;;;19.24;61.15;100274.13;7387591;19;1446;-41
2023/12/01 04:27:48;;;;;;;;;;;;;;;19.16;61.29;100284.72;7386091;19;1923;-41
2023/12/01 04:30:20;;;;;;;;;;;;;;;19.40;60.26;100276.16;7385803;19;1497;-41
2023/12/01 04:32:52;;;;;;;;;;;;;;;19.71;59.30;100302.63;7387587;19;1462;-42
2023/12/01 04:35:21;;;;;;;;;;;;;;;19.80;59.08;100281.13;7388296;19;1414;-42
2023/12/01 04:37:49;;;;;;;;;;;;;;;19.46;59.90;100275.56;7388608;19;1442;-42
2023/12/01 04:40:17;;;;;;;;;;;;;;;19.25;60.30;100267.75;7386691;19;1854;-41
2023/12/01 04:42:47;;;;;;;;;;;;;;;19.10;61.11;100263.88;7387483;19;1854;-41
2023/12/01 04:45:16;;;;;;;;;;;;;;;19.15;60.71;100266.97;7388951;19;1438;-41
2023/12/01 04:47:50;;;;;;;;;;;;;;;19.83;59.14;100267.41;7385994;19;1875;-42
2023/12/01 04:50:19;;;;;;;;;;;;;;;19.59;58.57;100186.66;7388673;19;1430;-41
2023/12/01 04:52:48;;;;;;;;;;;;;;;19.77;59.24;100246.53;7386411;19;1436;-41
2023/12/01 04:55:17;;;;;;;;;;;;;;;19.42;60.30;100253.56;7388144;19;1436;-41
2023/12/01 04:57:47;;;;;;;;;;;;;;;19.15;60.96;100240.16;7389166;19;1411;-41
2023/12/01 05:00:22;;;;;;;;;;;;;;;19.10;61.35;100263.88;7385833;19;1924;-41
2023/12/01 05:02:54;;;;;;;;;;;;;;;19.33;60.29;100257.13;7387676;19;1573;-41
2023/12/01 05:05:23;;;;;;;;;;;;;;;19.93;58.55;100245.84;7385698;19;1750;-41
2023/12/01 05:07:52;;;;;;;;;;;;;;;20.07;57.91;100247.16;7389567;19;1837;-41
2023/12/01 05:10:21;;;;;;;;;;;;;;;19.75;58.63;100248.53;7375370;19;1707;-41
2023/12/01 05:12:50;;;;;;;;;;;;;;;19.38;59.49;100238.75;7388583;19;1518;-42
2023/12/01 05:15:19;;;;;;;;;;;;;;;19.14;60.39;100233.97;7394578;19;1873;-42
2023/12/01 05:17:48;;;;;;;;;;;;;;;19.02;60.81;100237.81;7396028;19;1612;-41
2023/12/01 05:20:20;;;;;;;;;;;;;;;19.40;59.82;100234.09;7395526;19;1712;-41
2023/12/01 05:22:48;;;;;;;;;;;;;;;19.94;58.22;100225.25;7392170;19;1617;-41
2023/12/01 05:25:17;;;;;;;;;;;;;;;20.01;57.98;100232.50;7394399;19;1767;-41
2023/12/01 05:27:47;;;;;;;;;;;;;;;19.63;58.79;100239.00;7394298;19;1852;-41
2023/12/01 05:30:16;;;;;;;;;;;;;;;19.32;59.73;100235.81;7394333;19;1643;-41
2023/12/01 05:32:45;;;;;;;;;;;;;;;19.11;60.34;100247.66;7394295;19;1760;-41
2023/12/01 05:35:14;;;;;;;;;;;;;;;19.04;60.58;100242.06;7392837;19;1555;-41
2023/12/01 05:37:47;;;;;;;;;;;;;;;19.55;59.38;100258.53;7395663;19;1902;-41
2023/12/01 05:40:16;;;;;;;;;;;;;;;19.93;58.48;100250.38;7395682;19;1912;-41
2023/12/01 05:42:45;;;;;;;;;;;;;;;19.94;58.04;100235.97;7395083;19;1733;-41
2023/12/01 05:45:14;;;;;;;;;;;;;;;19.51;59.04;100245.59;7395207;19;1794;-42
2023/12/01 05:47:45;;;;;;;;;;;;;;;19.22;60.01;100242.09;7394354;19;1879;-41
2023/12/01 05:50:15;;;;;;;;;;;;;;;19.10;60.50;100239.75;7394197;19;1865;-42
2023/12/01 05:52:46;;;;;;;;;;;;;;;19.23;60.15;100237.56;7394244;19;1728;-41
2023/12/01 05:55:18;;;;;;;;;;;;;;;19.83;58.73;100215.59;7394440;19;1434;-41
2023/12/01 05:57:47;;;;;;;;;;;;;;;20.04;58.10;100218.78;7395191;19;1724;-41
2023/12/01 06:00:17;;;;;;;;;;;;;;;19.83;58.42;100211.06;7394759;19;1457;-41
2023/12/01 06:02:46;;;;;;;;;;;;;;;19.47;59.26;100212.88;7395614;19;1740;-41
2023/12/01 06:05:15;;;;;;;;;;;;;;;19.20;60.00;100221.78;7393626;19;1826;-41
2023/12/01 06:07:49;;;;;;;;;;;;;;;19.04;60.35;100206.38;7396250;19;1849;-41
2023/12/01 06:10:18;;;;;;;;;;;;;;;19.29;59.99;100220.88;7379481;19;1807;-41
2023/12/01 06:12:47;;;;;;;;;;;;;;;19.91;58.22;100198.72;7394862;19;1632;-41
2023/12/01 06:15:17;;;;;;;;;;;;;;;20.01;57.95;100211.03;7395383;19;1759;-41
2023/12/01 06:17:46;;;;;;;;;;;;;;;19.61;58.64;100203.44;7393432;19;1822;-41
2023/12/01 06:20:19;;;;;;;;;;;;;;;19.26;59.86;100221.22;7390003;19;1462;-41
2023/12/01 06:22:52;;;;;;;;;;;;;;;19.05;60.62;100208.06;7389146;19;1446;-42
2023/12/01 06:25:26;;;;;;;;;;;;;;;19.02;60.63;100201.16;7389193;19;1429;-41
2023/12/01 06:27:56;;;;;;;;;;;;;;;19.74;59.10;100198.59;7392220;19;2380;-42
2023/12/01 06:30:25;;;;;;;;;;;;;;;19.93;58.25;100191.34;7391850;19;1566;-41
2023/12/01 06:32:53;;;;;;;;;;;;;;;19.75;58.61;100221.72;7390657;19;1580;-41
2023/12/01 06:35:22;;;;;;;;;;;;;;;19.37;59.27;100218.28;7388822;19;1389;-41
2023/12/01 06:37:53;;;;;;;;;;;;;;;19.12;60.26;100214.50;7393058;19;1208;-41
2023/12/01 06:40:22;;;;;;;;;;;;;;;19.02;60.48;100214.56;7389490;19;1853;-41
2023/12/01 06:42:51;;;;;;;;;;;;;;;19.53;58.93;100211.41;7391086;19;1796;-41
2023/12/01 06:45:21;;;;;;;;;;;;;;;19.97;58.40;100224.91;7391012;19;1464;-41
2023/12/01 06:47:50;;;;;;;;;;;;;;;19.81;58.43;100215.72;7390412;19;2437;-41
2023/12/01 06:50:19;;;;;;;;;;;;;;;19.45;59.40;100221.06;7392306;19;1817;-41
2023/12/01 06:52:49;;;;;;;;;;;;;;;19.17;60.09;100209.53;7391366;19;1731;-41
2023/12/01 06:55:20;;;;;;;;;;;;;;;18.96;61.00;100215.16;7390525;19;1393;-40
2023/12/01 06:57:49;;;;;;;;;;;;;;;19.26;60.35;100269.47;7392475;19;1425;-41
2023/12/01 07:00:29;;;;;;;;;;;;;;;19.62;59.01;100205.97;7391006;19;1670;-41
2023/12/01 07:02:59;;;;;;;;;;;;;;;19.74;58.75;100214.69;7364567;19;1652;-43
2023/12/01 07:05:27;;;;;;;;;;;;;;;19.36;59.72;100213.94;7354340;19;1620;-41
2023/12/01 07:07:56;;;;;;;;;;;;;;;19.12;60.60;100219.88;7389855;19;1229;-41
2023/12/01 07:10:27;;;;;;;;;;;;;;;19.03;60.79;100226.13;7388562;19;1919;-41
2023/12/01 07:12:56;;;;;;;;;;;;;;;18.97;61.00;100224.88;7392096;19;1738;-40
2023/12/01 07:15:25;;;;;;;;;;;;;;;18.86;61.29;100203.63;7386604;19;1913;-46
2023/12/01 07:17:54;;;;;;;;;;;;;;;18.72;60.28;100212.13;7390634;19;1633;-43
2023/12/01 07:20:23;;;;;;;;;;;;;;;18.75;61.10;100206.47;7390803;19;1965;-45
2023/12/01 07:22:52;;;;;;;;;;;;;;;19.07;60.57;100201.53;7390002;19;1895;-45
2023/12/01 07:25:25;;;;;;;;;;;;;;;19.64;59.53;100198.63;7383706;19;1597;-45
2023/12/01 07:27:58;;;;;;;;;;;;;;;19.83;57.34;100213.72;7387630;19;1504;-45
2023/12/01 07:30:27;;;;;;;;;;;;;;;19.41;57.42;100195.53;7387075;19;1902;-45
2023/12/01 07:32:55;;;;;;;;;;;;;;;19.15;57.51;100187.41;7388623;19;1645;-45
2023/12/01 07:35:24;;;;;;;;;;;;;;;19.03;58.44;100202.00;7280943;19;1626;-44
2023/12/01 07:37:53;;;;;;;;;;;;;;;19.36;57.80;100200.53;7386512;19;1033;-45
2023/12/01 07:40:23;;;;;;;;;;;;;;;19.70;57.04;100210.59;7385363;19;1545;-43
2023/12/01 07:42:52;;;;;;;;;;;;;;;19.68;56.77;100210.72;7385318;19;1542;-45
2023/12/01 07:45:23;;;;;;;;;;;;;;;19.37;57.54;100202.22;7388494;19;1482;-45
2023/12/01 07:47:52;;;;;;;;;;;;;;;19.12;58.34;100198.44;7386665;19;1424;-43
2023/12/01 07:50:21;;;;;;;;;;;;;;;19.10;58.49;100203.09;7387094;19;1843;-43
2023/12/01 07:52:50;;;;;;;;;;;;;;;19.39;58.19;100205.56;7389096;19;1362;-43
2023/12/01 07:55:19;;;;;;;;;;;;;;;19.89;57.08;100212.28;7346214;19;13617;-42
2023/12/01 07:57:51;;;;;;;;;;;;;;;19.60;57.58;100212.50;7382913;19;1639;-43
2023/12/01 08:00:20;;;;;;;;;;;;;;;19.40;58.15;100214.47;7384857;19;1536;-40
2023/12/01 08:02:52;;;;;;;;;;;;;;;19.25;58.88;100200.75;7388536;19;1431;-40
2023/12/01 08:05:20;;;;;;;;;;;;;;;19.12;59.12;100198.44;7369834;19;1423;-40
2023/12/01 08:07:51;;;;;;;;;;;;;;;19.46;58.61;100201.31;7385902;19;1849;-40
2023/12/01 08:10:20;;;;;;;;;;;;;;;19.89;57.36;100203.38;7380498;19;1858;-40
2023/12/01 08:12:49;;;;;;;;;;;;;;;19.59;57.92;100189.34;7386554;19;1510;-38
2023/12/01 08:15:17;;;;;;;;;;;;;;;19.35;58.58;100211.41;7387358;19;1565;-40
2023/12/01 08:17:47;;;;;;;;;;;;;;;19.13;59.10;100231.44;7384813;19;1554;-40
2023/12/01 08:20:18;;;;;;;;;;;;;;;19.16;59.46;100209.66;7387067;19;1639;-40
2023/12/01 08:22:47;;;;;;;;;;;;;;;19.49;58.64;100210.88;7386800;19;1684;-40
2023/12/01 08:25:16;;;;;;;;;;;;;;;19.86;57.59;100194.66;7384589;19;1509;-40
2023/12/01 08:27:44;;;;;;;;;;;;;;;19.67;58.32;100202.84;7385723;19;1593;-40
2023/12/01 08:30:13;;;;;;;;;;;;;;;19.37;58.79;100210.25;7387770;19;1865;-40
2023/12/01 08:32:42;;;;;;;;;;;;;;;18.74;59.79;100145.84;7386090;19;1596;-40
2023/12/01 08:35:11;;;;;;;;;;;;;;;19.14;59.53;100206.28;7387334;19;1401;-40
2023/12/01 08:37:42;;;;;;;;;;;;;;;19.47;58.81;100223.59;7389983;19;1335;-40
2023/12/01 08:40:11;;;;;;;;;;;;;;;19.89;57.93;100206.06;7387599;19;1571;-40
2023/12/01 08:42:41;;;;;;;;;;;;;;;19.86;58.10;100202.72;7385199;19;1788;-40
2023/12/01 08:45:10;;;;;;;;;;;;;;;19.47;58.63;100207.50;7383341;19;1593;-41
2023/12/01 08:47:38;;;;;;;;;;;;;;;19.18;59.47;100191.59;7387491;19;1470;-38
2023/12/01 08:50:07;;;;;;;;;;;;;;;19.14;59.50;100180.38;7389047;19;1834;-38
2023/12/01 08:52:36;;;;;;;;;;;;;;;19.48;58.90;100191.28;7392785;19;1812;-38
2023/12/01 08:55:07;;;;;;;;;;;;;;;19.85;57.89;100186.75;7392615;19;1831;-38
2023/12/01 08:57:35;;;;;;;;;;;;;;;19.54;58.55;100184.44;7392244;19;1445;-38
2023/12/01 09:00:04;;;;;;;;;;;;;;;19.27;59.35;100179.97;7391861;19;1553;-38
2023/12/01 09:02:32;;;;;;;;;;;;;;;19.15;59.81;100191.91;7394173;19;1024;-38
2023/12/01 09:05:01;;;;;;;;;;;;;;;19.26;59.59;100199.75;7376762;19;1732;-38
2023/12/01 09:07:29;;;;;;;;;;;;;;;19.62;58.79;100178.31;7391690;19;1802;-38
2023/12/01 09:09:58;;;;;;;;;;;;;;;19.79;58.41;100182.84;7388433;19;1842;-38
2023/12/01 09:12:29;;;;;;;;;;;;;;;19.54;58.91;100178.25;7390834;19;1574;-38
2023/12/01 09:14:57;;;;;;;;;;;;;;;19.22;59.55;100172.41;7390833;19;1556;-38
2023/12/01 09:17:26;;;;;;;;;;;;;;;18.99;59.98;100168.47;7391526;19;1745;-38
2023/12/01 09:19:54;;;;;;;;;;;;;;;19.24;59.80;100174.94;7393799;19;1584;-41
2023/12/01 09:22:22;;;;;;;;;;;;;;;19.66;58.76;100164.44;7394079;19;1816;-38
2023/12/01 09:24:51;;;;;;;;;;;;;;;19.74;58.61;100169.06;7393178;19;1554;-38
2023/12/01 09:27:19;;;;;;;;;;;;;;;19.39;59.13;100168.03;7394991;19;1845;-38
2023/12/01 09:29:50;;;;;;;;;;;;;;;19.14;60.08;100179.50;7393697;19;1852;-38
2023/12/01 09:32:20;;;;;;;;;;;;;;;19.04;60.11;100180.41;7395063;19;1650;-38
2023/12/01 09:34:49;;;;;;;;;;;;;;;19.45;59.51;100180.00;7391213;19;1853;-40
2023/12/01 09:37:17;;;;;;;;;;;;;;;19.84;58.20;100182.41;7396104;19;1326;-41
2023/12/01 09:39:46;;;;;;;;;;;;;;;19.57;58.80;100170.72;7394257;19;1784;-40
2023/12/01 09:42:14;;;;;;;;;;;;;;;19.28;59.49;100176.31;7394453;19;1733;-40
2023/12/01 09:44:43;;;;;;;;;;;;;;;19.09;60.20;100177.28;7394277;19;1574;-40
2023/12/01 09:47:17;;;;;;;;;;;;;;;19.19;59.89;100175.38;7392770;19;1960;-40
2023/12/01 09:49:49;;;;;;;;;;;;;;;19.64;58.90;100154.88;7392935;19;1873;-38
2023/12/01 09:52:17;;;;;;;;;;;;;;;19.73;58.55;100172.72;7393025;19;1479;-38
2023/12/01 09:54:45;;;;;;;;;;;;;;;19.42;59.30;100181.16;7391746;19;1389;-38
2023/12/01 09:57:14;;;;;;;;;;;;;;;19.13;59.95;100159.91;7394018;19;1377;-39
2023/12/01 09:59:42;;;;;;;;;;;;;;;19.07;60.23;100177.44;7392100;19;1364;-38
2023/12/01 10:02:14;;;;;;;;;;;;;;;19.36;59.62;100160.31;7394236;19;1920;-38
2023/12/01 10:04:43;;;;;;;;;;;;;;;19.83;58.20;100161.91;7390201;19;1740;-38
2023/12/01 10:07:11;;;;;;;;;;;;;;;19.64;58.89;100171.81;7384187;19;1797;-38
2023/12/01 10:09:39;;;;;;;;;;;;;;;19.31;59.67;100167.13;7392999;19;1843;-41
2023/12/01 10:12:10;;;;;;;;;;;;;;;19.14;60.22;100172.31;7391845;19;1696;-40
2023/12/01 10:14:38;;;;;;;;;;;;;;;19.24;59.94;100158.88;7393047;19;1749;-40
2023/12/01 10:17:08;;;;;;;;;;;;;;;19.71;58.71;100139.00;7392461;19;1675;-38
2023/12/01 10:19:47;;;;;;;;;;;;;;;19.84;58.27;100171.66;7390519;19;1576;-37
2023/12/01 10:22:15;;;;;;;;;;;;;;;19.48;59.11;100150.22;7391986;19;1839;-38
2023/12/01 10:24:54;;;;;;;;;;;;;;;19.25;59.70;100144.44;7393317;19;1688;-37
2023/12/01 10:27:22;;;;;;;;;;;;;;;19.02;59.98;100134.16;7393787;19;1780;-38
2023/12/01 10:29:51;;;;;;;;;;;;;;;19.32;59.80;100140.16;7392124;19;1878;-38
2023/12/01 10:32:20;;;;;;;;;;;;;;;19.89;58.30;100144.34;7393032;19;1572;-38
2023/12/01 10:34:54;;;;;;;;;;;;;;;19.65;58.71;100127.03;7393513;19;1717;-38
2023/12/01 10:37:23;;;;;;;;;;;;;;;19.31;59.43;100141.16;7394980;19;1101;-38
2023/12/01 10:39:53;;;;;;;;;;;;;;;19.11;60.04;100150.34;7392018;19;1970;-38
2023/12/01 10:42:23;;;;;;;;;;;;;;;19.18;60.00;100143.34;7394183;19;1851;-38
2023/12/01 10:44:52;;;;;;;;;;;;;;;19.63;58.70;100145.97;7391382;19;1716;-38
2023/12/01 10:47:21;;;;;;;;;;;;;;;19.80;58.47;100133.56;7393801;19;1745;-38
2023/12/01 10:49:51;;;;;;;;;;;;;;;19.56;59.03;100128.00;7392069;19;1893;-38
2023/12/01 10:52:23;;;;;;;;;;;;;;;19.33;59.42;100131.13;7393825;19;1571;-38
2023/12/01 10:54:52;;;;;;;;;;;;;;;19.18;60.11;100129.97;7392924;19;1594;-38
2023/12/01 10:57:34;;;;;;;;;;;;;;;19.26;59.75;100106.78;7393170;19;1453;-40
2023/12/01 11:00:07;;;;;;;;;;;;;;;19.68;58.87;100097.25;7391157;19;1572;-40
2023/12/01 11:02:38;;;;;;;;;;;;;;;19.91;58.27;100096.75;7392211;19;1548;-41
2023/12/01 11:05:10;;;;;;;;;;;;;;;19.20;58.90;100045.75;7381532;19;1384;-41
2023/12/01 11:07:52;;;;;;;;;;;;;;;19.32;59.32;100091.06;7393028;19;1338;-40
2023/12/01 11:10:25;;;;;;;;;;;;;;;19.01;59.64;100107.53;7390172;19;1861;-40
2023/12/01 11:13:00;;;;;;;;;;;;;;;18.83;56.56;100112.84;7389888;19;1851;-40
2023/12/01 11:15:30;;;;;;;;;;;;;;;19.65;55.30;100109.09;7391196;19;1867;-40
2023/12/01 11:17:58;;;;;;;;;;;;;;;19.92;54.88;100119.91;7391494;19;1575;-41
2023/12/01 11:20:36;;;;;;;;;;;;;;;19.48;55.71;100118.88;7390937;19;1558;-40
2023/12/01 11:23:24;;;;;;;;;;;;;;;19.11;56.96;100110.13;7391438;19;1816;-42
2023/12/01 11:25:55;;;;;;;;;;;;;;;18.97;57.56;100119.53;7391637;19;1588;-41
2023/12/01 11:28:27;;;;;;;;;;;;;;;19.35;57.14;100130.97;7391935;19;1741;-41
2023/12/01 11:31:05;;;;;;;;;;;;;;;19.79;56.15;100128.34;7389050;19;1890;-41
2023/12/01 11:33:34;;;;;;;;;;;;;;;19.85;56.01;100095.53;7390421;19;1769;-41
2023/12/01 11:36:17;;;;;;;;;;;;;;;19.47;56.97;100111.81;7389235;19;1831;-41
2023/12/01 11:39:00;;;;;;;;;;;;;;;19.26;57.51;100122.84;7392735;19;1836;-41
2023/12/01 11:41:31;;;;;;;;;;;;;;;19.12;58.18;100101.09;7389823;19;1963;-41
2023/12/01 11:44:04;;;;;;;;;;;;;;;19.39;57.74;100087.59;7389893;19;1503;-41
2023/12/01 11:46:33;;;;;;;;;;;;;;;19.96;56.26;100089.06;7391192;19;1527;-41
2023/12/01 11:49:01;;;;;;;;;;;;;;;19.95;56.24;100082.84;7391576;19;1828;-41
2023/12/01 11:51:30;;;;;;;;;;;;;;;19.56;57.11;100077.03;7389012;19;1857;-41
2023/12/01 11:54:00;;;;;;;;;;;;;;;19.27;57.89;100073.59;7390837;19;1726;-40
2023/12/01 11:56:31;;;;;;;;;;;;;;;19.06;58.46;100054.31;7389436;19;1400;-41
2023/12/01 11:59:00;;;;;;;;;;;;;;;19.08;58.58;100071.09;7390209;19;1780;-40
2023/12/01 12:01:28;;;;;;;;;;;;;;;19.21;57.50;100001.00;7390531;19;1514;-40
2023/12/01 12:03:57;;;;;;;;;;;;;;;19.97;56.69;100070.09;7391468;19;1824;-41
2023/12/01 12:06:26;;;;;;;;;;;;;;;19.65;57.32;100086.81;7375409;19;1713;-41
2023/12/01 12:08:55;;;;;;;;;;;;;;;19.37;57.86;100102.16;7389787;19;1741;-41
2023/12/01 12:11:23;;;;;;;;;;;;;;;19.13;58.61;100057.22;7387632;19;1846;-40
2023/12/01 12:13:58;;;;;;;;;;;;;;;18.99;59.04;100069.31;7390490;19;1750;-41
2023/12/01 12:16:27;;;;;;;;;;;;;;;19.47;58.02;100076.94;7389757;19;1475;-40
2023/12/01 12:18:55;;;;;;;;;;;;;;;19.99;56.77;100072.63;7389802;19;1499;-41
2023/12/01 12:21:25;;;;;;;;;;;;;;;19.80;56.93;100069.19;7389598;19;1601;-40
2023/12/01 12:23:53;;;;;;;;;;;;;;;19.42;57.74;100044.41;7397239;19;992;-41
2023/12/01 12:26:23;;;;;;;;;;;;;;;19.17;58.67;100050.56;7398772;19;1851;-41
2023/12/01 12:28:53;;;;;;;;;;;;;;;19.03;58.97;100062.66;7395999;19;1821;-41
2023/12/01 12:31:25;;;;;;;;;;;;;;;19.38;58.14;100051.09;7393746;19;1849;-41
2023/12/01 12:33:54;;;;;;;;;;;;;;;19.99;56.57;100048.50;7395122;19;1941;-41
2023/12/01 12:36:23;;;;;;;;;;;;;;;20.02;56.50;100050.88;7397209;19;1662;-40
2023/12/01 12:38:52;;;;;;;;;;;;;;;19.70;57.32;100076.47;7396959;19;1518;-38
2023/12/01 12:41:25;;;;;;;;;;;;;;;19.39;58.02;100079.56;7397019;19;1615;-38
2023/12/01 12:43:54;;;;;;;;;;;;;;;19.23;58.40;100055.31;7395022;19;1427;-38
2023/12/01 12:46:26;;;;;;;;;;;;;;;19.11;58.50;100068.09;7395933;19;1464;-38
2023/12/01 12:48:57;;;;;;;;;;;;;;;19.70;57.39;100068.41;7395684;19;1892;-38
2023/12/01 12:51:24;;;;;;;;;;;;;;;20.16;56.32;100077.09;7394857;19;1929;-38
2023/12/01 12:53:52;;;;;;;;;;;;;;;19.92;56.95;100077.81;7395748;19;1582;-38
2023/12/01 12:56:21;;;;;;;;;;;;;;;19.55;57.90;100078.00;7396238;19;1529;-39
2023/12/01 12:58:50;;;;;;;;;;;;;;;19.28;58.52;100077.97;7396948;19;1985;-38
2023/12/01 13:01:19;;;;;;;;;;;;;;;19.17;58.73;100088.91;7397458;19;1652;-38